sensor_id;sensor_type;location;lat;lon;timestamp;P1;durP1;ratioP1;P2;durP2;ratioP2
49444;SDS011;35323;43.080;-81.378;2023-02-11T00:00:42;0.63;;;0.50;;
49444;SDS011;35323;43.080;-81.378;2023-02-11T00:03:09;0.40;;;0.40;;
49444;SDS011;35323;43.080;-81.378;2023-02-11T00:05:37;0.30;;;0.30;;
49444;SDS011;35323;43.080;-81.378;2023-02-11T00:08:06;0.40;;;0.40;;
49444;SDS011;35323;43.080;-81.378;2023-02-11T00:10:33;0.50;;;0.50;;
49444;SDS011;35323;43.080;-81.378;2023-02-11T00:13:01;0.43;;;0.32;;
49444;SDS011;35323;43.080;-81.378;2023-02-11T00:15:28;0.40;;;0.40;;
49444;SDS011;35323;43.080;-81.378;2023-02-11T00:17:56;0.30;;;0.30;;
49444;SDS011;35323;43.080;-81.378;2023-02-11T00:20:26;0.47;;;0.47;;
49444;SDS011;35323;43.080;-81.378;2023-02-11T00:22:54;0.40;;;0.40;;
49444;SDS011;35323;43.080;-81.378;2023-02-11T00:25:21;2.30;;;0.75;;
49444;SDS011;35323;43.080;-81.378;2023-02-11T00:27:49;0.40;;;0.40;;
49444;SDS011;35323;43.080;-81.378;2023-02-11T00:30:16;0.40;;;0.40;;
49444;SDS011;35323;43.080;-81.378;2023-02-11T00:32:44;0.38;;;0.38;;
49444;SDS011;35323;43.080;-81.378;2023-02-11T00:35:12;0.30;;;0.30;;
49444;SDS011;35323;43.080;-81.378;2023-02-11T00:37:39;0.65;;;0.65;;
49444;SDS011;35323;43.080;-81.378;2023-02-11T00:40:07;0.35;;;0.35;;
49444;SDS011;35323;43.080;-81.378;2023-02-11T00:42:36;0.30;;;0.30;;
49444;SDS011;35323;43.080;-81.378;2023-02-11T00:45:03;0.30;;;0.30;;
49444;SDS011;35323;43.080;-81.378;2023-02-11T00:47:31;0.32;;;0.32;;
49444;SDS011;35323;43.080;-81.378;2023-02-11T00:49:59;0.50;;;0.50;;
49444;SDS011;35323;43.080;-81.378;2023-02-11T00:52:27;0.40;;;0.40;;
49444;SDS011;35323;43.080;-81.378;2023-02-11T00:54:55;0.50;;;0.50;;
49444;SDS011;35323;43.080;-81.378;2023-02-11T00:57:23;0.40;;;0.40;;
49444;SDS011;35323;43.080;-81.378;2023-02-11T00:59:52;0.38;;;0.38;;
49444;SDS011;35323;43.080;-81.378;2023-02-11T01:02:19;0.30;;;0.30;;
49444;SDS011;35323;43.080;-81.378;2023-02-11T01:04:47;0.38;;;0.38;;
49444;SDS011;35323;43.080;-81.378;2023-02-11T01:07:14;0.35;;;0.35;;
49444;SDS011;35323;43.080;-81.378;2023-02-11T01:09:42;0.57;;;0.57;;
49444;SDS011;35323;43.080;-81.378;2023-02-11T01:12:09;0.50;;;0.50;;
49444;SDS011;35323;43.080;-81.378;2023-02-11T01:14:37;0.30;;;0.30;;
49444;SDS011;35323;43.080;-81.378;2023-02-11T01:17:05;0.30;;;0.30;;
49444;SDS011;35323;43.080;-81.378;2023-02-11T01:19:32;0.30;;;0.30;;
49444;SDS011;35323;43.080;-81.378;2023-02-11T01:22:00;1.15;;;0.45;;
49444;SDS011;35323;43.080;-81.378;2023-02-11T01:24:27;0.40;;;0.40;;
49444;SDS011;35323;43.080;-81.378;2023-02-11T01:26:55;0.40;;;0.40;;
49444;SDS011;35323;43.080;-81.378;2023-02-11T01:29:22;0.50;;;0.50;;
49444;SDS011;35323;43.080;-81.378;2023-02-11T01:31:50;0.30;;;0.30;;
49444;SDS011;35323;43.080;-81.378;2023-02-11T01:34:19;1.65;;;0.70;;
49444;SDS011;35323;43.080;-81.378;2023-02-11T01:36:47;0.40;;;0.40;;
49444;SDS011;35323;43.080;-81.378;2023-02-11T01:39:14;0.40;;;0.40;;
49444;SDS011;35323;43.080;-81.378;2023-02-11T01:41:44;0.38;;;0.38;;
49444;SDS011;35323;43.080;-81.378;2023-02-11T01:44:25;0.35;;;0.35;;
49444;SDS011;35323;43.080;-81.378;2023-02-11T01:46:53;1.20;;;0.50;;
49444;SDS011;35323;43.080;-81.378;2023-02-11T01:49:25;0.40;;;0.40;;
49444;SDS011;35323;43.080;-81.378;2023-02-11T01:51:55;0.45;;;0.40;;
49444;SDS011;35323;43.080;-81.378;2023-02-11T01:54:26;0.38;;;0.38;;
49444;SDS011;35323;43.080;-81.378;2023-02-11T01:57:14;0.40;;;0.40;;
49444;SDS011;35323;43.080;-81.378;2023-02-11T02:05:34;0.60;;;0.60;;
49444;SDS011;35323;43.080;-81.378;2023-02-11T02:10:45;0.30;;;0.30;;
49444;SDS011;35323;43.080;-81.378;2023-02-11T02:13:14;0.40;;;0.40;;
49444;SDS011;35323;43.080;-81.378;2023-02-11T02:15:46;0.50;;;0.50;;
49444;SDS011;35323;43.080;-81.378;2023-02-11T02:18:19;0.70;;;0.70;;
49444;SDS011;35323;43.080;-81.378;2023-02-11T02:26:35;0.40;;;0.40;;
49444;SDS011;35323;43.080;-81.378;2023-02-11T02:36:54;0.82;;;0.63;;
49444;SDS011;35323;43.080;-81.378;2023-02-11T02:39:25;0.50;;;0.50;;
49444;SDS011;35323;43.080;-81.378;2023-02-11T02:41:53;0.45;;;0.45;;
49444;SDS011;35323;43.080;-81.378;2023-02-11T02:44:22;0.50;;;0.50;;
49444;SDS011;35323;43.080;-81.378;2023-02-11T02:46:50;0.40;;;0.40;;
49444;SDS011;35323;43.080;-81.378;2023-02-11T02:49:18;0.47;;;0.47;;
49444;SDS011;35323;43.080;-81.378;2023-02-11T02:56:45;0.40;;;0.40;;
49444;SDS011;35323;43.080;-81.378;2023-02-11T02:59:19;0.40;;;0.40;;
49444;SDS011;35323;43.080;-81.378;2023-02-11T03:06:54;0.50;;;0.50;;
49444;SDS011;35323;43.080;-81.378;2023-02-11T03:11:51;0.40;;;0.40;;
49444;SDS011;35323;43.080;-81.378;2023-02-11T03:14:19;0.50;;;0.50;;
49444;SDS011;35323;43.080;-81.378;2023-02-11T03:16:48;0.40;;;0.40;;
49444;SDS011;35323;43.080;-81.378;2023-02-11T03:19:17;0.55;;;0.55;;
49444;SDS011;35323;43.080;-81.378;2023-02-11T03:21:47;0.55;;;0.55;;
49444;SDS011;35323;43.080;-81.378;2023-02-11T03:24:20;0.40;;;0.40;;
49444;SDS011;35323;43.080;-81.378;2023-02-11T03:26:49;1.02;;;1.02;;
49444;SDS011;35323;43.080;-81.378;2023-02-11T03:34:33;0.40;;;0.40;;
49444;SDS011;35323;43.080;-81.378;2023-02-11T03:39:37;0.30;;;0.30;;
49444;SDS011;35323;43.080;-81.378;2023-02-11T03:42:06;0.88;;;0.60;;
49444;SDS011;35323;43.080;-81.378;2023-02-11T03:44:36;0.40;;;0.40;;
49444;SDS011;35323;43.080;-81.378;2023-02-11T03:47:06;1.92;;;0.60;;
49444;SDS011;35323;43.080;-81.378;2023-02-11T03:49:35;3.67;;;0.80;;
49444;SDS011;35323;43.080;-81.378;2023-02-11T03:52:04;0.63;;;0.63;;
49444;SDS011;35323;43.080;-81.378;2023-02-11T03:54:33;0.47;;;0.47;;
49444;SDS011;35323;43.080;-81.378;2023-02-11T03:57:01;0.68;;;0.68;;
49444;SDS011;35323;43.080;-81.378;2023-02-11T03:59:30;0.50;;;0.50;;
49444;SDS011;35323;43.080;-81.378;2023-02-11T04:01:57;0.60;;;0.60;;
49444;SDS011;35323;43.080;-81.378;2023-02-11T04:04:25;1.45;;;0.85;;
49444;SDS011;35323;43.080;-81.378;2023-02-11T04:06:53;0.63;;;0.63;;
49444;SDS011;35323;43.080;-81.378;2023-02-11T04:09:20;0.40;;;0.40;;
49444;SDS011;35323;43.080;-81.378;2023-02-11T04:11:49;0.57;;;0.57;;
49444;SDS011;35323;43.080;-81.378;2023-02-11T04:14:16;0.75;;;0.75;;
49444;SDS011;35323;43.080;-81.378;2023-02-11T04:16:44;0.38;;;0.38;;
49444;SDS011;35323;43.080;-81.378;2023-02-11T04:19:12;0.40;;;0.40;;
49444;SDS011;35323;43.080;-81.378;2023-02-11T04:21:39;0.38;;;0.38;;
49444;SDS011;35323;43.080;-81.378;2023-02-11T04:24:07;0.60;;;0.60;;
49444;SDS011;35323;43.080;-81.378;2023-02-11T04:26:34;0.40;;;0.40;;
49444;SDS011;35323;43.080;-81.378;2023-02-11T04:29:02;0.68;;;0.68;;
49444;SDS011;35323;43.080;-81.378;2023-02-11T04:31:29;0.30;;;0.30;;
49444;SDS011;35323;43.080;-81.378;2023-02-11T04:33:57;0.40;;;0.40;;
49444;SDS011;35323;43.080;-81.378;2023-02-11T04:36:24;0.60;;;0.60;;
49444;SDS011;35323;43.080;-81.378;2023-02-11T04:38:52;0.55;;;0.55;;
49444;SDS011;35323;43.080;-81.378;2023-02-11T04:41:20;0.50;;;0.50;;
49444;SDS011;35323;43.080;-81.378;2023-02-11T04:43:48;0.40;;;0.40;;
49444;SDS011;35323;43.080;-81.378;2023-02-11T04:46:15;1.17;;;0.63;;
49444;SDS011;35323;43.080;-81.378;2023-02-11T04:48:43;0.90;;;0.88;;
49444;SDS011;35323;43.080;-81.378;2023-02-11T04:51:10;0.60;;;0.60;;
49444;SDS011;35323;43.080;-81.378;2023-02-11T04:53:38;0.60;;;0.60;;
49444;SDS011;35323;43.080;-81.378;2023-02-11T04:56:06;0.45;;;0.45;;
49444;SDS011;35323;43.080;-81.378;2023-02-11T04:58:35;0.77;;;0.77;;
49444;SDS011;35323;43.080;-81.378;2023-02-11T05:01:09;0.68;;;0.68;;
49444;SDS011;35323;43.080;-81.378;2023-02-11T05:03:37;0.45;;;0.40;;
49444;SDS011;35323;43.080;-81.378;2023-02-11T05:06:04;0.88;;;0.60;;
49444;SDS011;35323;43.080;-81.378;2023-02-11T05:08:32;0.35;;;0.35;;
49444;SDS011;35323;43.080;-81.378;2023-02-11T05:11:01;0.60;;;0.60;;
49444;SDS011;35323;43.080;-81.378;2023-02-11T05:13:29;0.40;;;0.40;;
49444;SDS011;35323;43.080;-81.378;2023-02-11T05:15:57;0.55;;;0.55;;
49444;SDS011;35323;43.080;-81.378;2023-02-11T05:18:25;0.95;;;0.60;;
49444;SDS011;35323;43.080;-81.378;2023-02-11T05:20:53;0.40;;;0.40;;
49444;SDS011;35323;43.080;-81.378;2023-02-11T05:23:22;0.57;;;0.57;;
49444;SDS011;35323;43.080;-81.378;2023-02-11T05:25:50;0.55;;;0.55;;
49444;SDS011;35323;43.080;-81.378;2023-02-11T05:28:18;0.77;;;0.50;;
49444;SDS011;35323;43.080;-81.378;2023-02-11T05:30:45;0.85;;;0.85;;
49444;SDS011;35323;43.080;-81.378;2023-02-11T05:33:13;0.40;;;0.40;;
49444;SDS011;35323;43.080;-81.378;2023-02-11T05:35:41;0.68;;;0.68;;
49444;SDS011;35323;43.080;-81.378;2023-02-11T05:38:08;0.45;;;0.45;;
49444;SDS011;35323;43.080;-81.378;2023-02-11T05:40:36;0.70;;;0.70;;
49444;SDS011;35323;43.080;-81.378;2023-02-11T05:43:03;0.73;;;0.73;;
49444;SDS011;35323;43.080;-81.378;2023-02-11T05:45:31;0.40;;;0.40;;
49444;SDS011;35323;43.080;-81.378;2023-02-11T05:47:59;0.50;;;0.50;;
49444;SDS011;35323;43.080;-81.378;2023-02-11T05:50:26;2.55;;;0.70;;
49444;SDS011;35323;43.080;-81.378;2023-02-11T05:52:54;0.98;;;0.68;;
49444;SDS011;35323;43.080;-81.378;2023-02-11T05:55:22;2.53;;;0.75;;
49444;SDS011;35323;43.080;-81.378;2023-02-11T05:57:49;0.40;;;0.40;;
49444;SDS011;35323;43.080;-81.378;2023-02-11T06:00:17;0.60;;;0.60;;
49444;SDS011;35323;43.080;-81.378;2023-02-11T06:02:45;1.08;;;0.80;;
49444;SDS011;35323;43.080;-81.378;2023-02-11T06:05:12;0.60;;;0.60;;
49444;SDS011;35323;43.080;-81.378;2023-02-11T06:07:40;0.43;;;0.43;;
49444;SDS011;35323;43.080;-81.378;2023-02-11T06:10:07;0.40;;;0.40;;
49444;SDS011;35323;43.080;-81.378;2023-02-11T06:12:36;1.83;;;0.73;;
49444;SDS011;35323;43.080;-81.378;2023-02-11T06:15:04;0.77;;;0.63;;
49444;SDS011;35323;43.080;-81.378;2023-02-11T06:17:32;0.40;;;0.40;;
49444;SDS011;35323;43.080;-81.378;2023-02-11T06:20:00;1.65;;;0.80;;
49444;SDS011;35323;43.080;-81.378;2023-02-11T06:22:28;0.50;;;0.50;;
49444;SDS011;35323;43.080;-81.378;2023-02-11T06:24:56;0.73;;;0.60;;
49444;SDS011;35323;43.080;-81.378;2023-02-11T06:27:27;0.70;;;0.70;;
49444;SDS011;35323;43.080;-81.378;2023-02-11T06:29:55;1.00;;;0.90;;
49444;SDS011;35323;43.080;-81.378;2023-02-11T06:32:22;1.55;;;1.45;;
49444;SDS011;35323;43.080;-81.378;2023-02-11T06:35:08;0.60;;;0.60;;
49444;SDS011;35323;43.080;-81.378;2023-02-11T06:37:38;0.80;;;0.80;;
49444;SDS011;35323;43.080;-81.378;2023-02-11T06:40:05;0.68;;;0.68;;
49444;SDS011;35323;43.080;-81.378;2023-02-11T06:42:33;0.47;;;0.43;;
49444;SDS011;35323;43.080;-81.378;2023-02-11T06:45:02;0.50;;;0.50;;
49444;SDS011;35323;43.080;-81.378;2023-02-11T06:47:31;0.50;;;0.50;;
49444;SDS011;35323;43.080;-81.378;2023-02-11T06:49:59;1.17;;;0.80;;
49444;SDS011;35323;43.080;-81.378;2023-02-11T06:52:30;0.65;;;0.65;;
49444;SDS011;35323;43.080;-81.378;2023-02-11T06:54:57;0.70;;;0.70;;
49444;SDS011;35323;43.080;-81.378;2023-02-11T06:57:25;0.43;;;0.43;;
49444;SDS011;35323;43.080;-81.378;2023-02-11T06:59:52;2.47;;;1.00;;
49444;SDS011;35323;43.080;-81.378;2023-02-11T07:02:20;1.27;;;1.08;;
49444;SDS011;35323;43.080;-81.378;2023-02-11T07:04:47;0.63;;;0.60;;
49444;SDS011;35323;43.080;-81.378;2023-02-11T07:07:15;0.73;;;0.73;;
49444;SDS011;35323;43.080;-81.378;2023-02-11T07:09:42;0.65;;;0.65;;
49444;SDS011;35323;43.080;-81.378;2023-02-11T07:12:10;1.10;;;1.00;;
49444;SDS011;35323;43.080;-81.378;2023-02-11T07:14:38;0.68;;;0.68;;
49444;SDS011;35323;43.080;-81.378;2023-02-11T07:17:05;0.77;;;0.77;;
49444;SDS011;35323;43.080;-81.378;2023-02-11T07:19:33;0.68;;;0.68;;
49444;SDS011;35323;43.080;-81.378;2023-02-11T07:22:01;1.85;;;0.80;;
49444;SDS011;35323;43.080;-81.378;2023-02-11T07:24:29;0.63;;;0.50;;
49444;SDS011;35323;43.080;-81.378;2023-02-11T07:26:56;0.90;;;0.90;;
49444;SDS011;35323;43.080;-81.378;2023-02-11T07:29:24;0.55;;;0.55;;
49444;SDS011;35323;43.080;-81.378;2023-02-11T07:31:51;1.25;;;1.15;;
49444;SDS011;35323;43.080;-81.378;2023-02-11T07:34:19;0.40;;;0.40;;
49444;SDS011;35323;43.080;-81.378;2023-02-11T07:36:47;0.47;;;0.47;;
49444;SDS011;35323;43.080;-81.378;2023-02-11T07:39:17;0.90;;;0.90;;
49444;SDS011;35323;43.080;-81.378;2023-02-11T07:41:46;0.60;;;0.60;;
49444;SDS011;35323;43.080;-81.378;2023-02-11T07:44:15;0.57;;;0.50;;
49444;SDS011;35323;43.080;-81.378;2023-02-11T07:46:42;0.88;;;0.65;;
49444;SDS011;35323;43.080;-81.378;2023-02-11T07:49:11;0.60;;;0.60;;
49444;SDS011;35323;43.080;-81.378;2023-02-11T07:51:38;1.00;;;0.73;;
49444;SDS011;35323;43.080;-81.378;2023-02-11T07:54:06;0.52;;;0.52;;
49444;SDS011;35323;43.080;-81.378;2023-02-11T07:56:34;0.55;;;0.55;;
49444;SDS011;35323;43.080;-81.378;2023-02-11T07:59:02;0.47;;;0.47;;
49444;SDS011;35323;43.080;-81.378;2023-02-11T08:01:29;0.77;;;0.77;;
49444;SDS011;35323;43.080;-81.378;2023-02-11T08:03:57;0.93;;;0.93;;
49444;SDS011;35323;43.080;-81.378;2023-02-11T08:06:27;0.40;;;0.40;;
49444;SDS011;35323;43.080;-81.378;2023-02-11T08:08:55;0.88;;;0.88;;
49444;SDS011;35323;43.080;-81.378;2023-02-11T08:11:24;1.00;;;1.00;;
49444;SDS011;35323;43.080;-81.378;2023-02-11T08:13:52;0.80;;;0.70;;
49444;SDS011;35323;43.080;-81.378;2023-02-11T08:16:24;0.40;;;0.40;;
49444;SDS011;35323;43.080;-81.378;2023-02-11T08:18:52;0.40;;;0.40;;
49444;SDS011;35323;43.080;-81.378;2023-02-11T08:21:21;0.80;;;0.80;;
49444;SDS011;35323;43.080;-81.378;2023-02-11T08:23:49;0.70;;;0.70;;
49444;SDS011;35323;43.080;-81.378;2023-02-11T08:26:21;1.15;;;0.95;;
49444;SDS011;35323;43.080;-81.378;2023-02-11T08:28:49;1.35;;;1.05;;
49444;SDS011;35323;43.080;-81.378;2023-02-11T08:31:18;0.60;;;0.60;;
49444;SDS011;35323;43.080;-81.378;2023-02-11T08:33:46;0.50;;;0.50;;
49444;SDS011;35323;43.080;-81.378;2023-02-11T08:36:22;0.57;;;0.57;;
49444;SDS011;35323;43.080;-81.378;2023-02-11T08:38:56;0.55;;;0.55;;
49444;SDS011;35323;43.080;-81.378;2023-02-11T08:41:43;0.50;;;0.50;;
49444;SDS011;35323;43.080;-81.378;2023-02-11T08:44:11;0.50;;;0.50;;
49444;SDS011;35323;43.080;-81.378;2023-02-11T08:46:39;0.82;;;0.65;;
49444;SDS011;35323;43.080;-81.378;2023-02-11T08:49:06;1.35;;;1.02;;
49444;SDS011;35323;43.080;-81.378;2023-02-11T08:51:34;0.80;;;0.80;;
49444;SDS011;35323;43.080;-81.378;2023-02-11T08:54:02;1.85;;;0.80;;
49444;SDS011;35323;43.080;-81.378;2023-02-11T08:56:29;0.50;;;0.50;;
49444;SDS011;35323;43.080;-81.378;2023-02-11T08:58:59;0.90;;;0.90;;
49444;SDS011;35323;43.080;-81.378;2023-02-11T09:01:28;2.08;;;0.70;;
49444;SDS011;35323;43.080;-81.378;2023-02-11T09:03:56;0.63;;;0.63;;
49444;SDS011;35323;43.080;-81.378;2023-02-11T09:06:24;0.75;;;0.75;;
49444;SDS011;35323;43.080;-81.378;2023-02-11T09:08:53;0.70;;;0.70;;
49444;SDS011;35323;43.080;-81.378;2023-02-11T09:11:23;0.68;;;0.68;;
49444;SDS011;35323;43.080;-81.378;2023-02-11T09:13:51;0.90;;;0.88;;
49444;SDS011;35323;43.080;-81.378;2023-02-11T09:16:21;0.98;;;0.75;;
49444;SDS011;35323;43.080;-81.378;2023-02-11T09:18:49;2.38;;;1.23;;
49444;SDS011;35323;43.080;-81.378;2023-02-11T09:21:17;0.95;;;0.95;;
49444;SDS011;35323;43.080;-81.378;2023-02-11T09:23:45;0.47;;;0.47;;
49444;SDS011;35323;43.080;-81.378;2023-02-11T09:26:18;0.85;;;0.70;;
49444;SDS011;35323;43.080;-81.378;2023-02-11T09:28:46;1.15;;;0.75;;
49444;SDS011;35323;43.080;-81.378;2023-02-11T09:31:14;0.50;;;0.50;;
49444;SDS011;35323;43.080;-81.378;2023-02-11T09:33:43;0.70;;;0.65;;
49444;SDS011;35323;43.080;-81.378;2023-02-11T09:36:15;0.82;;;0.82;;
49444;SDS011;35323;43.080;-81.378;2023-02-11T09:38:44;1.42;;;0.80;;
49444;SDS011;35323;43.080;-81.378;2023-02-11T09:42:01;0.77;;;0.73;;
49444;SDS011;35323;43.080;-81.378;2023-02-11T09:44:01;0.88;;;0.75;;
49444;SDS011;35323;43.080;-81.378;2023-02-11T09:46:33;0.50;;;0.50;;
49444;SDS011;35323;43.080;-81.378;2023-02-11T09:49:02;0.60;;;0.60;;
49444;SDS011;35323;43.080;-81.378;2023-02-11T09:54:34;0.70;;;0.70;;
49444;SDS011;35323;43.080;-81.378;2023-02-11T09:57:03;0.60;;;0.60;;
49444;SDS011;35323;43.080;-81.378;2023-02-11T09:59:35;0.82;;;0.82;;
49444;SDS011;35323;43.080;-81.378;2023-02-11T10:02:05;0.57;;;0.57;;
49444;SDS011;35323;43.080;-81.378;2023-02-11T10:07:26;3.08;;;0.70;;
49444;SDS011;35323;43.080;-81.378;2023-02-11T10:15:16;1.05;;;0.70;;
49444;SDS011;35323;43.080;-81.378;2023-02-11T10:23:17;0.50;;;0.50;;
49444;SDS011;35323;43.080;-81.378;2023-02-11T10:25:50;0.95;;;0.70;;
49444;SDS011;35323;43.080;-81.378;2023-02-11T10:28:35;1.27;;;0.70;;
49444;SDS011;35323;43.080;-81.378;2023-02-11T10:31:09;0.60;;;0.60;;
49444;SDS011;35323;43.080;-81.378;2023-02-11T10:36:11;0.40;;;0.40;;
49444;SDS011;35323;43.080;-81.378;2023-02-11T10:38:39;0.80;;;0.77;;
49444;SDS011;35323;43.080;-81.378;2023-02-11T10:41:16;2.25;;;0.70;;
49444;SDS011;35323;43.080;-81.378;2023-02-11T10:43:44;0.65;;;0.65;;
49444;SDS011;35323;43.080;-81.378;2023-02-11T10:46:16;0.70;;;0.70;;
49444;SDS011;35323;43.080;-81.378;2023-02-11T10:48:48;5.90;;;1.65;;
49444;SDS011;35323;43.080;-81.378;2023-02-11T10:51:19;0.52;;;0.50;;
49444;SDS011;35323;43.080;-81.378;2023-02-11T10:53:48;0.32;;;0.32;;
49444;SDS011;35323;43.080;-81.378;2023-02-11T10:56:24;0.60;;;0.60;;
49444;SDS011;35323;43.080;-81.378;2023-02-11T10:59:03;0.55;;;0.55;;
49444;SDS011;35323;43.080;-81.378;2023-02-11T11:01:42;0.65;;;0.65;;
49444;SDS011;35323;43.080;-81.378;2023-02-11T11:09:48;2.65;;;1.52;;
49444;SDS011;35323;43.080;-81.378;2023-02-11T11:22:47;0.60;;;0.60;;
49444;SDS011;35323;43.080;-81.378;2023-02-11T11:25:25;1.63;;;1.08;;
49444;SDS011;35323;43.080;-81.378;2023-02-11T11:27:55;1.13;;;1.13;;
49444;SDS011;35323;43.080;-81.378;2023-02-11T11:30:25;1.55;;;1.30;;
49444;SDS011;35323;43.080;-81.378;2023-02-11T11:32:53;0.80;;;0.80;;
49444;SDS011;35323;43.080;-81.378;2023-02-11T11:35:26;1.15;;;1.05;;
49444;SDS011;35323;43.080;-81.378;2023-02-11T11:38:02;13.40;;;1.67;;
49444;SDS011;35323;43.080;-81.378;2023-02-11T11:40:32;2.95;;;0.98;;
49444;SDS011;35323;43.080;-81.378;2023-02-11T11:45:58;1.73;;;1.25;;
49444;SDS011;35323;43.080;-81.378;2023-02-11T11:56:02;1.15;;;1.05;;
49444;SDS011;35323;43.080;-81.378;2023-02-11T11:58:31;0.80;;;0.63;;
49444;SDS011;35323;43.080;-81.378;2023-02-11T12:01:09;0.88;;;0.75;;
49444;SDS011;35323;43.080;-81.378;2023-02-11T12:06:14;1.60;;;0.70;;
49444;SDS011;35323;43.080;-81.378;2023-02-11T12:11:34;1.10;;;1.05;;
49444;SDS011;35323;43.080;-81.378;2023-02-11T12:19:20;0.70;;;0.70;;
49444;SDS011;35323;43.080;-81.378;2023-02-11T12:24:37;5.38;;;1.23;;
49444;SDS011;35323;43.080;-81.378;2023-02-11T12:27:34;1.17;;;0.70;;
49444;SDS011;35323;43.080;-81.378;2023-02-11T12:33:12;0.98;;;0.80;;
49444;SDS011;35323;43.080;-81.378;2023-02-11T12:35:47;0.50;;;0.50;;
49444;SDS011;35323;43.080;-81.378;2023-02-11T12:41:20;0.60;;;0.60;;
49444;SDS011;35323;43.080;-81.378;2023-02-11T12:44:11;0.65;;;0.65;;
49444;SDS011;35323;43.080;-81.378;2023-02-11T12:46:52;2.10;;;0.95;;
49444;SDS011;35323;43.080;-81.378;2023-02-11T12:52:27;15.07;;;1.88;;
49444;SDS011;35323;43.080;-81.378;2023-02-11T12:54:58;5.03;;;0.90;;
49444;SDS011;35323;43.080;-81.378;2023-02-11T12:57:28;2.65;;;1.40;;
49444;SDS011;35323;43.080;-81.378;2023-02-11T12:59:59;3.15;;;1.75;;
49444;SDS011;35323;43.080;-81.378;2023-02-11T13:05:22;5.22;;;1.42;;
49444;SDS011;35323;43.080;-81.378;2023-02-11T13:12:49;3.05;;;1.63;;
49444;SDS011;35323;43.080;-81.378;2023-02-11T13:15:36;3.58;;;1.95;;
49444;SDS011;35323;43.080;-81.378;2023-02-11T13:20:50;1.13;;;1.13;;
49444;SDS011;35323;43.080;-81.378;2023-02-11T13:23:24;0.47;;;0.47;;
49444;SDS011;35323;43.080;-81.378;2023-02-11T13:28:27;1.65;;;1.42;;
49444;SDS011;35323;43.080;-81.378;2023-02-11T13:31:02;0.70;;;0.70;;
49444;SDS011;35323;43.080;-81.378;2023-02-11T13:33:39;1.95;;;1.75;;
49444;SDS011;35323;43.080;-81.378;2023-02-11T13:36:10;0.80;;;0.80;;
49444;SDS011;35323;43.080;-81.378;2023-02-11T13:38:39;1.23;;;0.90;;
49444;SDS011;35323;43.080;-81.378;2023-02-11T13:41:16;0.63;;;0.63;;
49444;SDS011;35323;43.080;-81.378;2023-02-11T13:43:44;4.95;;;0.90;;
49444;SDS011;35323;43.080;-81.378;2023-02-11T13:46:22;2.45;;;1.52;;
49444;SDS011;35323;43.080;-81.378;2023-02-11T13:48:53;3.05;;;1.38;;
49444;SDS011;35323;43.080;-81.378;2023-02-11T13:51:37;0.93;;;0.85;;
49444;SDS011;35323;43.080;-81.378;2023-02-11T13:54:17;2.00;;;0.60;;
49444;SDS011;35323;43.080;-81.378;2023-02-11T13:57:13;0.73;;;0.73;;
49444;SDS011;35323;43.080;-81.378;2023-02-11T14:02:03;1.73;;;0.90;;
49444;SDS011;35323;43.080;-81.378;2023-02-11T14:05:01;0.68;;;0.65;;
49444;SDS011;35323;43.080;-81.378;2023-02-11T14:10:55;1.33;;;1.13;;
49444;SDS011;35323;43.080;-81.378;2023-02-11T14:13:25;6.50;;;2.27;;
49444;SDS011;35323;43.080;-81.378;2023-02-11T14:16:07;0.57;;;0.57;;
49444;SDS011;35323;43.080;-81.378;2023-02-11T14:18:36;1.77;;;1.15;;
49444;SDS011;35323;43.080;-81.378;2023-02-11T14:21:11;3.38;;;1.73;;
49444;SDS011;35323;43.080;-81.378;2023-02-11T14:23:39;1.50;;;1.08;;
49444;SDS011;35323;43.080;-81.378;2023-02-11T14:26:20;1.52;;;1.42;;
49444;SDS011;35323;43.080;-81.378;2023-02-11T14:29:15;1.92;;;0.85;;
49444;SDS011;35323;43.080;-81.378;2023-02-11T14:31:45;0.85;;;0.85;;
49444;SDS011;35323;43.080;-81.378;2023-02-11T14:36:49;1.35;;;1.02;;
49444;SDS011;35323;43.080;-81.378;2023-02-11T14:42:09;1.55;;;1.38;;
49444;SDS011;35323;43.080;-81.378;2023-02-11T14:44:39;2.70;;;1.17;;
49444;SDS011;35323;43.080;-81.378;2023-02-11T14:47:10;1.35;;;1.20;;
49444;SDS011;35323;43.080;-81.378;2023-02-11T14:49:40;2.65;;;2.35;;
49444;SDS011;35323;43.080;-81.378;2023-02-11T14:57:35;12.82;;;2.13;;
49444;SDS011;35323;43.080;-81.378;2023-02-11T15:00:13;1.90;;;1.58;;
49444;SDS011;35323;43.080;-81.378;2023-02-11T15:02:42;11.88;;;2.22;;
49444;SDS011;35323;43.080;-81.378;2023-02-11T15:05:18;5.72;;;1.55;;
49444;SDS011;35323;43.080;-81.378;2023-02-11T15:07:48;7.05;;;3.22;;
49444;SDS011;35323;43.080;-81.378;2023-02-11T15:10:24;3.28;;;1.92;;
49444;SDS011;35323;43.080;-81.378;2023-02-11T15:12:52;7.30;;;4.75;;
49444;SDS011;35323;43.080;-81.378;2023-02-11T15:15:23;18.55;;;6.10;;
49444;SDS011;35323;43.080;-81.378;2023-02-11T15:17:51;11.07;;;6.65;;
49444;SDS011;35323;43.080;-81.378;2023-02-11T15:20:24;21.55;;;11.45;;
49444;SDS011;35323;43.080;-81.378;2023-02-11T15:22:54;17.50;;;5.50;;
49444;SDS011;35323;43.080;-81.378;2023-02-11T15:25:23;15.88;;;5.63;;
49444;SDS011;35323;43.080;-81.378;2023-02-11T15:27:52;13.95;;;4.40;;
49444;SDS011;35323;43.080;-81.378;2023-02-11T15:30:24;7.28;;;3.30;;
49444;SDS011;35323;43.080;-81.378;2023-02-11T15:32:54;14.10;;;3.67;;
49444;SDS011;35323;43.080;-81.378;2023-02-11T15:35:27;3.58;;;3.28;;
49444;SDS011;35323;43.080;-81.378;2023-02-11T15:37:57;10.13;;;4.10;;
49444;SDS011;35323;43.080;-81.378;2023-02-11T15:40:31;9.98;;;5.05;;
49444;SDS011;35323;43.080;-81.378;2023-02-11T15:43:06;3.00;;;2.38;;
49444;SDS011;35323;43.080;-81.378;2023-02-11T15:48:18;2.85;;;2.35;;
49444;SDS011;35323;43.080;-81.378;2023-02-11T15:50:57;5.28;;;2.72;;
49444;SDS011;35323;43.080;-81.378;2023-02-11T15:53:28;4.93;;;2.33;;
49444;SDS011;35323;43.080;-81.378;2023-02-11T15:59:07;3.03;;;2.42;;
49444;SDS011;35323;43.080;-81.378;2023-02-11T16:01:36;5.30;;;2.30;;
49444;SDS011;35323;43.080;-81.378;2023-02-11T16:04:05;1.60;;;1.50;;
49444;SDS011;35323;43.080;-81.378;2023-02-11T16:06:36;1.60;;;1.50;;
49444;SDS011;35323;43.080;-81.378;2023-02-11T16:11:51;7.18;;;3.17;;
49444;SDS011;35323;43.080;-81.378;2023-02-11T16:14:27;6.93;;;5.03;;
49444;SDS011;35323;43.080;-81.378;2023-02-11T16:17:09;5.68;;;3.03;;
49444;SDS011;35323;43.080;-81.378;2023-02-11T16:19:44;3.25;;;1.70;;
49444;SDS011;35323;43.080;-81.378;2023-02-11T16:22:17;1.58;;;1.52;;
49444;SDS011;35323;43.080;-81.378;2023-02-11T16:24:48;2.92;;;1.73;;
49444;SDS011;35323;43.080;-81.378;2023-02-11T16:27:19;1.30;;;1.20;;
49444;SDS011;35323;43.080;-81.378;2023-02-11T16:29:47;0.80;;;0.80;;
49444;SDS011;35323;43.080;-81.378;2023-02-11T16:32:16;3.72;;;3.42;;
49444;SDS011;35323;43.080;-81.378;2023-02-11T16:34:45;4.45;;;1.90;;
49444;SDS011;35323;43.080;-81.378;2023-02-11T16:37:12;2.45;;;2.08;;
49444;SDS011;35323;43.080;-81.378;2023-02-11T16:39:40;8.55;;;4.60;;
49444;SDS011;35323;43.080;-81.378;2023-02-11T16:42:08;4.55;;;2.53;;
49444;SDS011;35323;43.080;-81.378;2023-02-11T16:44:36;1.15;;;1.08;;
49444;SDS011;35323;43.080;-81.378;2023-02-11T16:47:05;2.60;;;1.65;;
49444;SDS011;35323;43.080;-81.378;2023-02-11T16:49:37;2.38;;;2.08;;
49444;SDS011;35323;43.080;-81.378;2023-02-11T16:52:08;3.10;;;1.80;;
49444;SDS011;35323;43.080;-81.378;2023-02-11T16:54:38;3.00;;;1.30;;
49444;SDS011;35323;43.080;-81.378;2023-02-11T16:57:13;3.22;;;1.75;;
49444;SDS011;35323;43.080;-81.378;2023-02-11T16:59:42;20.10;;;5.28;;
49444;SDS011;35323;43.080;-81.378;2023-02-11T17:02:30;6.75;;;2.95;;
49444;SDS011;35323;43.080;-81.378;2023-02-11T17:04:58;5.70;;;1.90;;
49444;SDS011;35323;43.080;-81.378;2023-02-11T17:07:26;1.30;;;1.02;;